Time;durP1;ratioP1;P1;durP2;ratioP2;P2;SDS_P1;SDS_P2;PMS_P1;PMS_P2;Temp;Humidity;BMP_temperature;BMP_pressure;BME280_temperature;BME280_humidity;BME280_pressure;Samples;Min_cycle;Max_cycle;Signal;HPM_P1;HPM_P2
2021/04/30 00:01:01;;;;;;;14.40;10.38;;;;;;;10.83;81.52;95663.91;5073524;28;20052;-68
2021/04/30 00:03:27;;;;;;;15.65;9.73;;;;;;;10.87;81.03;95670.28;5070238;28;20047;-68
2021/04/30 00:05:53;;;;;;;12.85;9.05;;;;;;;10.75;80.51;95672.94;5069161;28;20119;-68
2021/04/30 00:08:19;;;;;;;13.32;9.13;;;;;;;10.63;80.59;95679.94;5069685;28;20102;-68
2021/04/30 00:10:45;;;;;;;16.10;9.98;;;;;;;10.70;80.94;95677.50;5069373;28;20049;-67
2021/04/30 00:13:12;;;;;;;20.17;9.88;;;;;;;10.74;81.02;95671.34;5069412;28;20051;-69
2021/04/30 00:15:39;;;;;;;17.30;9.93;;;;;;;10.66;80.54;95671.13;5069901;28;20072;-68
2021/04/30 00:18:05;;;;;;;13.52;10.02;;;;;;;10.60;80.31;95669.72;5069210;28;20048;-68
2021/04/30 00:20:31;;;;;;;14.57;9.40;;;;;;;10.57;80.71;95670.38;5071165;28;20067;-67
2021/04/30 00:22:57;;;;;;;14.38;10.00;;;;;;;10.64;80.56;95665.19;5089276;28;20052;-67
2021/04/30 00:25:25;;;;;;;13.38;9.52;;;;;;;10.66;80.25;95665.66;5090068;28;20044;-67
2021/04/30 00:27:50;;;;;;;14.35;10.52;;;;;;;10.52;80.54;95670.59;5089175;28;20059;-67
2021/04/30 00:30:17;;;;;;;15.68;10.88;;;;;;;10.56;80.96;95662.56;5089421;28;20048;-67
2021/04/30 00:32:43;;;;;;;15.75;11.02;;;;;;;10.59;81.04;95665.41;5089204;28;20044;-67
2021/04/30 00:35:10;;;;;;;17.23;10.50;;;;;;;10.68;81.17;95662.59;5089465;28;20048;-67
2021/04/30 00:37:38;;;;;;;15.43;10.55;;;;;;;10.71;81.09;95662.75;5089506;28;20457;-67
2021/04/30 00:40:06;;;;;;;15.18;10.80;;;;;;;10.80;81.08;95659.13;5089126;28;20076;-69
2021/04/30 00:42:32;;;;;;;16.02;10.93;;;;;;;10.81;80.68;95660.72;5090259;28;20040;-69
2021/04/30 00:44:59;;;;;;;17.08;9.90;;;;;;;10.82;80.49;95659.59;5093058;28;20078;-69
2021/04/30 00:47:27;;;;;;;16.63;10.50;;;;;;;10.84;80.47;95658.13;5093091;28;20040;-69
2021/04/30 00:49:53;;;;;;;14.88;10.90;;;;;;;10.84;80.68;95657.31;5092602;28;20044;-69
2021/04/30 00:52:19;;;;;;;14.18;10.45;;;;;;;10.81;80.15;95655.28;5093334;28;20059;-68
2021/04/30 00:54:45;;;;;;;15.60;10.02;;;;;;;10.77;80.54;95657.09;5092719;28;20067;-67
2021/04/30 00:57:12;;;;;;;14.43;10.38;;;;;;;10.77;80.54;95654.34;5093113;28;20051;-67
2021/04/30 00:59:39;;;;;;;14.82;9.57;;;;;;;10.74;80.13;95658.53;5092251;28;20051;-67
2021/04/30 01:02:06;;;;;;;12.70;9.50;;;;;;;10.74;80.28;95655.03;5092709;28;20075;-69
2021/04/30 01:04:32;;;;;;;16.15;9.73;;;;;;;10.71;80.28;95656.50;5092820;28;20051;-67
2021/04/30 01:06:57;;;;;;;11.20;8.27;;;;;;;10.70;79.98;95660.31;5092500;28;20448;-67
2021/04/30 01:09:23;;;;;;;17.08;9.15;;;;;;;10.69;79.74;95658.75;5092797;28;20043;-67
2021/04/30 01:11:51;;;;;;;13.20;9.70;;;;;;;10.68;79.32;95655.22;5092461;28;20551;-69
2021/04/30 01:14:17;;;;;;;14.98;9.52;;;;;;;10.68;79.33;95668.84;5093003;28;20055;-67
2021/04/30 01:16:44;;;;;;;13.00;9.10;;;;;;;10.68;78.79;95668.84;5092995;28;20051;-67
2021/04/30 01:19:19;;;;;;;13.98;9.63;;;;;;;10.68;79.00;95673.50;5092930;28;20044;-69
2021/04/30 01:21:45;;;;;;;14.68;9.55;;;;;;;10.65;79.14;95674.97;5092241;28;20052;-67
2021/04/30 01:24:12;;;;;;;13.23;9.65;;;;;;;10.63;79.30;95673.69;5092192;28;20054;-67
2021/04/30 01:26:38;;;;;;;14.32;10.20;;;;;;;10.66;79.16;95671.13;5092453;28;20050;-67
2021/04/30 01:29:04;;;;;;;13.15;9.43;;;;;;;10.60;79.53;95669.72;5074038;28;20458;-67
2021/04/30 01:31:33;;;;;;;14.80;10.40;;;;;;;10.56;79.33;95671.53;5072347;28;20052;-67
2021/04/30 01:33:59;;;;;;;13.75;10.02;;;;;;;10.57;79.36;95667.66;5071527;28;20477;-67
2021/04/30 01:36:25;;;;;;;14.68;9.93;;;;;;;10.54;79.86;95679.22;5072334;28;20040;-67
2021/04/30 01:38:51;;;;;;;13.10;9.65;;;;;;;10.56;79.85;95682.41;5071611;28;20102;-67
2021/04/30 01:41:20;;;;;;;15.52;9.57;;;;;;;10.60;79.87;95683.34;5072241;28;20089;-68
2021/04/30 01:43:46;;;;;;;13.63;9.55;;;;;;;10.60;78.73;95688.00;5071653;28;20037;-67
2021/04/30 01:46:12;;;;;;;14.02;10.13;;;;;;;10.58;78.69;95691.03;5071691;28;20094;-67
2021/04/30 01:48:38;;;;;;;12.70;9.30;;;;;;;10.61;78.74;95692.31;5071726;28;20068;-67
2021/04/30 01:51:05;;;;;;;11.30;8.52;;;;;;;10.62;78.44;95697.41;5077058;28;20479;-67
2021/04/30 01:53:33;;;;;;;12.93;9.55;;;;;;;10.62;78.77;95700.13;5091951;28;20044;-67
2021/04/30 01:56:00;;;;;;;13.50;8.85;;;;;;;10.63;79.15;95693.56;5091586;28;20055;-67
2021/04/30 01:58:27;;;;;;;11.45;8.95;;;;;;;10.60;78.95;95705.13;5081677;28;20044;-69
2021/04/30 02:00:55;;;;;;;15.35;9.95;;;;;;;10.62;79.29;95700.13;5070889;28;20128;-67
2021/04/30 02:03:21;;;;;;;13.82;10.43;;;;;;;10.63;79.29;95707.16;5071583;28;20060;-67
2021/04/30 02:05:47;;;;;;;12.70;10.07;;;;;;;10.64;79.52;95699.78;5071022;28;20463;-66
2021/04/30 02:08:16;;;;;;;15.00;10.63;;;;;;;10.65;79.50;95696.75;5071564;28;20055;-66
2021/04/30 02:10:44;;;;;;;13.20;9.95;;;;;;;10.67;79.24;95694.47;5070927;28;20045;-67
2021/04/30 02:13:11;;;;;;;13.20;9.55;;;;;;;10.69;79.17;95691.41;5070956;28;20521;-67
2021/04/30 02:15:40;;;;;;;13.82;9.93;;;;;;;10.70;78.93;95695.72;5071146;28;20564;-67
2021/04/30 02:18:06;;;;;;;12.95;9.82;;;;;;;10.69;78.97;95692.22;5070652;28;20055;-66
2021/04/30 02:20:32;;;;;;;13.82;9.85;;;;;;;10.71;78.99;95694.63;5072780;28;20598;-67
2021/04/30 02:22:59;;;;;;;13.40;9.95;;;;;;;10.72;78.75;95688.03;5090796;28;20044;-67
2021/04/30 02:25:25;;;;;;;14.00;10.50;;;;;;;10.70;79.01;95676.66;5091462;28;20043;-67
2021/04/30 02:27:55;;;;;;;14.75;10.23;;;;;;;10.70;79.11;95676.66;5085387;28;20518;-67
2021/04/30 02:30:22;;;;;;;13.38;10.18;;;;;;;10.70;79.41;95682.94;5071100;28;20102;-67
2021/04/30 02:32:51;;;;;;;12.77;9.20;;;;;;;10.71;79.29;95678.28;5070570;28;20052;-68
2021/04/30 02:35:19;;;;;;;16.15;10.60;;;;;;;10.68;79.31;95685.19;5070467;28;20476;-67
2021/04/30 02:37:46;;;;;;;12.88;9.70;;;;;;;10.65;79.56;95687.78;5070947;28;20051;-67
2021/04/30 02:40:15;;;;;;;15.25;11.43;;;;;;;10.59;79.36;95684.44;5070185;28;20053;-67
2021/04/30 02:42:41;;;;;;;15.32;10.52;;;;;;;10.56;79.30;95682.41;5071059;28;20072;-67
2021/04/30 02:45:11;;;;;;;13.02;10.43;;;;;;;10.54;79.49;95681.94;5069837;28;20041;-69
2021/04/30 02:47:37;;;;;;;14.00;10.00;;;;;;;10.54;79.25;95679.22;5071525;28;20048;-69
2021/04/30 02:50:07;;;;;;;12.00;9.48;;;;;;;10.56;78.80;95676.97;5069592;28;20132;-69
2021/04/30 02:52:33;;;;;;;16.58;10.18;;;;;;;10.54;78.86;95684.66;5089420;28;20044;-69
2021/04/30 02:54:59;;;;;;;12.05;8.98;;;;;;;10.55;79.08;95683.56;5091406;28;20044;-69
2021/04/30 02:57:27;;;;;;;13.60;10.55;;;;;;;10.59;79.12;95681.72;5089084;28;20051;-69
2021/04/30 02:59:54;;;;;;;12.77;9.60;;;;;;;10.62;78.72;95694.69;5070610;28;20048;-69
2021/04/30 03:02:20;;;;;;;12.50;8.93;;;;;;;10.60;78.46;95694.25;5069929;28;20055;-69
2021/04/30 03:04:45;;;;;;;13.13;9.40;;;;;;;10.60;78.57;95688.00;5070638;28;20049;-69
2021/04/30 03:07:12;;;;;;;15.30;10.05;;;;;;;10.62;78.46;95702.06;5069227;28;20048;-69
2021/04/30 03:09:38;;;;;;;14.52;9.82;;;;;;;10.60;78.08;95690.72;5070900;28;20059;-69
2021/04/30 03:12:05;;;;;;;12.70;9.38;;;;;;;10.61;78.64;95692.31;5069419;28;20049;-69
2021/04/30 03:14:31;;;;;;;15.57;11.27;;;;;;;10.62;79.11;95691.19;5071022;28;20048;-69
2021/04/30 03:16:57;;;;;;;13.98;10.65;;;;;;;10.63;79.10;95688.09;5069780;28;20047;-69
2021/04/30 03:19:23;;;;;;;16.30;10.73;;;;;;;10.65;79.14;95696.75;5070352;28;20118;-69
2021/04/30 03:21:49;;;;;;;13.15;10.40;;;;;;;10.65;79.09;95702.19;5081883;28;20522;-69
2021/04/30 03:24:16;;;;;;;15.80;10.82;;;;;;;10.66;79.04;95703.78;5089980;28;20135;-69
2021/04/30 03:26:42;;;;;;;12.88;9.90;;;;;;;10.67;78.72;95694.47;5090467;28;20518;-70
2021/04/30 03:29:08;;;;;;;17.15;11.02;;;;;;;10.69;78.91;95702.31;5073745;28;20155;-69
2021/04/30 03:31:34;;;;;;;16.60;11.32;;;;;;;10.68;78.64;95696.06;5070572;28;20055;-69
2021/04/30 03:34:00;;;;;;;14.82;11.40;;;;;;;10.69;78.82;95694.94;5069693;28;20049;-67
2021/04/30 03:36:26;;;;;;;17.38;12.32;;;;;;;10.71;79.06;95695.41;5070371;28;20045;-67
2021/04/30 03:38:52;;;;;;;15.63;12.18;;;;;;;10.71;78.93;95694.63;5069311;28;20057;-68
2021/04/30 03:41:19;;;;;;;19.00;12.15;;;;;;;10.68;79.08;95690.63;5070273;28;20101;-68
2021/04/30 03:43:45;;;;;;;18.98;12.38;;;;;;;10.68;79.41;95690.63;5069570;28;20051;-67
2021/04/30 03:46:12;;;;;;;18.20;13.35;;;;;;;10.71;79.33;95689.97;5070037;28;20045;-68
2021/04/30 03:48:38;;;;;;;19.02;13.32;;;;;;;10.73;79.34;95684.19;5069775;28;20063;-68
2021/04/30 03:51:05;;;;;;;18.27;12.93;;;;;;;10.67;79.31;95688.25;5075366;28;20036;-67
2021/04/30 03:53:31;;;;;;;20.85;13.27;;;;;;;10.68;79.77;95700.72;5090180;28;20044;-68
2021/04/30 03:55:57;;;;;;;17.42;13.38;;;;;;;10.70;79.30;95701.19;5089882;28;20600;-68
2021/04/30 03:58:24;;;;;;;18.85;13.77;;;;;;;10.69;79.33;95696.88;5080345;28;20395;-68
2021/04/30 04:00:50;;;;;;;20.23;13.35;;;;;;;10.68;78.96;95693.34;5069317;28;20045;-68
2021/04/30 04:03:16;;;;;;;16.92;13.18;;;;;;;10.68;78.99;95704.25;5070113;28;20052;-68
2021/04/30 04:05:42;;;;;;;18.45;13.70;;;;;;;10.67;79.16;95699.94;5069237;28;20045;-68
2021/04/30 04:08:08;;;;;;;18.27;14.40;;;;;;;10.66;79.27;95692.91;5069972;28;20641;-68
2021/04/30 04:10:35;;;;;;;20.55;14.05;;;;;;;10.65;79.56;95691.31;5069241;28;20495;-68
2021/04/30 04:13:01;;;;;;;21.30;14.05;;;;;;;10.66;78.91;95698.34;5070135;28;20052;-68
2021/04/30 04:15:28;;;;;;;19.85;14.65;;;;;;;10.64;79.18;95700.59;5069428;28;20041;-67
2021/04/30 04:17:54;;;;;;;17.63;14.18;;;;;;;10.64;79.20;95711.47;5070524;28;20045;-68
2021/04/30 04:20:20;;;;;;;19.45;14.73;;;;;;;10.62;79.47;95705.59;5073352;28;20068;-68
2021/04/30 04:22:46;;;;;;;18.60;14.20;;;;;;;10.60;78.68;95699.69;5092731;28;20090;-67
2021/04/30 04:25:12;;;;;;;20.27;14.02;;;;;;;10.56;78.94;95696.03;5093652;28;20515;-68
2021/04/30 04:27:37;;;;;;;20.42;15.38;;;;;;;10.54;79.03;95694.75;5089341;28;20130;-68
2021/04/30 04:30:07;;;;;;;23.60;17.25;;;;;;;10.47;79.40;95689.84;5073609;28;20072;-68
2021/04/30 04:32:33;;;;;;;27.85;17.92;;;;;;;10.42;79.44;95693.56;5072500;28;20427;-68
2021/04/30 04:34:59;;;;;;;25.60;18.20;;;;;;;10.42;79.79;95693.56;5073742;28;20114;-67
2021/04/30 04:37:25;;;;;;;33.22;19.38;;;;;;;10.38;79.89;95692.63;5072259;28;20408;-67
2021/04/30 04:39:51;;;;;;;29.10;20.25;;;;;;;10.38;80.24;95697.28;5073295;28;20048;-68
2021/04/30 04:42:17;;;;;;;28.52;20.55;;;;;;;10.39;80.11;95709.78;5072398;28;20095;-68
2021/04/30 04:44:43;;;;;;;27.75;19.77;;;;;;;10.43;79.79;95705.25;5072758;28;20045;-68
2021/04/30 04:47:09;;;;;;;31.00;20.48;;;;;;;10.46;79.34;95704.59;5072876;28;20098;-68
2021/04/30 04:49:36;;;;;;;30.05;20.20;;;;;;;10.48;79.46;95696.09;5072237;28;20457;-67
2021/04/30 04:52:02;;;;;;;28.83;19.73;;;;;;;10.52;79.36;95692.38;5086809;28;20055;-68
2021/04/30 04:54:28;;;;;;;30.05;20.65;;;;;;;10.57;79.32;95705.00;5092426;28;20503;-67
2021/04/30 04:56:54;;;;;;;29.10;20.38;;;;;;;10.60;79.03;95693.44;5093526;28;20070;-68
2021/04/30 04:59:20;;;;;;;36.05;23.27;;;;;;;10.65;79.03;95699.47;5074167;28;20047;-67
2021/04/30 05:01:46;;;;;;;46.40;28.15;;;;;;;10.70;78.83;95704.72;5072980;28;20488;-68
2021/04/30 05:04:12;;;;;;;38.33;23.75;;;;;;;10.74;79.01;95709.47;5071750;28;20055;-68
2021/04/30 05:06:38;;;;;;;29.83;20.00;;;;;;;10.75;79.22;95716.50;5072659;28;20048;-68
2021/04/30 05:09:05;;;;;;;29.35;19.83;;;;;;;10.78;78.89;95721.31;5072136;28;20044;-68
2021/04/30 05:11:31;;;;;;;29.63;18.63;;;;;;;10.82;79.17;95733.13;5072222;28;20052;-67
2021/04/30 05:13:56;;;;;;;29.77;19.25;;;;;;;10.84;79.07;95737.09;5073053;28;20083;-67
2021/04/30 05:16:22;;;;;;;25.63;17.23;;;;;;;10.87;78.25;95741.09;5072638;28;20105;-67
2021/04/30 05:18:48;;;;;;;25.50;16.73;;;;;;;10.81;75.31;95747.88;5073205;28;20511;-67
2021/04/30 05:21:14;;;;;;;22.05;16.02;;;;;;;10.75;75.15;95749.97;5078412;28;20048;-67
2021/04/30 05:23:41;;;;;;;27.23;16.73;;;;;;;10.69;75.17;95754.84;5093149;28;20525;-67
2021/04/30 05:26:07;;;;;;;22.35;16.02;;;;;;;10.64;74.64;95755.03;5091564;28;20040;-67
2021/04/30 05:28:33;;;;;;;23.55;16.23;;;;;;;10.61;74.32;95761.16;5080901;28;20135;-68
2021/04/30 05:30:59;;;;;;;25.25;15.07;;;;;;;10.55;73.64;95757.06;5071821;28;20098;-67
2021/04/30 05:33:26;;;;;;;21.45;14.75;;;;;;;10.48;73.29;95756.78;5071442;28;20713;-67
2021/04/30 05:35:52;;;;;;;23.38;15.27;;;;;;;10.44;72.76;95753.13;5072147;28;20048;-67
2021/04/30 05:38:18;;;;;;;25.08;16.73;;;;;;;10.44;72.98;95755.88;5071292;28;20071;-77
2021/04/30 05:40:45;;;;;;;23.23;14.63;;;;;;;10.44;70.59;95755.88;5072780;28;20419;-77
2021/04/30 05:43:11;;;;;;;22.83;14.35;;;;;;;10.45;70.70;95758.25;5070973;28;20049;-77
2021/04/30 05:45:39;;;;;;;28.33;15.27;;;;;;;10.46;71.34;95759.03;5072699;28;20510;-71
2021/04/30 05:48:06;;;;;;;27.42;14.75;;;;;;;10.47;71.60;95757.91;5071146;28;20048;-71
2021/04/30 05:50:31;;;;;;;20.75;14.05;;;;;;;10.52;70.97;95746.81;5073646;28;20045;-71
2021/04/30 05:52:57;;;;;;;23.98;16.00;;;;;;;10.64;71.18;95748.81;5091783;28;20550;-71
2021/04/30 05:55:23;;;;;;;24.58;15.15;;;;;;;10.78;71.51;95748.53;5091413;28;20105;-71
2021/04/30 05:57:50;;;;;;;22.75;14.25;;;;;;;10.84;70.77;95742.53;5086695;28;20097;-71
2021/04/30 06:00:17;;;;;;;22.17;14.13;;;;;;;10.91;70.66;95737.38;5070989;28;20041;-72
2021/04/30 06:02:43;;;;;;;21.48;13.73;;;;;;;10.96;69.89;95733.63;5072045;28;20044;-71
2021/04/30 06:05:09;;;;;;;20.58;14.45;;;;;;;10.95;69.60;95743.72;5070814;28;20155;-71
2021/04/30 06:07:35;;;;;;;20.38;14.32;;;;;;;10.94;70.05;95736.69;5072043;28;20049;-71
2021/04/30 06:10:02;;;;;;;21.48;14.18;;;;;;;10.96;70.10;95739.88;5071231;28;20068;-71
2021/04/30 06:12:28;;;;;;;23.90;14.95;;;;;;;10.98;71.08;95737.63;5071647;28;20453;-72
2021/04/30 06:14:55;;;;;;;21.50;14.43;;;;;;;11.03;70.74;95744.00;5071077;28;20045;-71
2021/04/30 06:17:21;;;;;;;25.58;15.60;;;;;;;11.08;70.03;95747.28;5070606;28;20048;-71
2021/04/30 06:19:47;;;;;;;33.25;16.30;;;;;;;11.14;70.73;95745.94;5070811;28;20052;-71
2021/04/30 06:22:13;;;;;;;26.38;15.75;;;;;;;11.19;70.69;95764.03;5086070;28;20445;-71
2021/04/30 06:24:39;;;;;;;23.75;15.00;;;;;;;11.17;70.65;95767.09;5090600;28;20071;-71
2021/04/30 06:27:05;;;;;;;22.60;15.52;;;;;;;11.27;71.33;95786.84;5088877;28;20487;-71
2021/04/30 06:29:32;;;;;;;24.05;15.63;;;;;;;11.31;70.39;95793.22;5071985;28;20101;-71
2021/04/30 06:31:59;;;;;;;25.25;15.32;;;;;;;11.35;70.40;95794.16;5070466;28;20045;-71
2021/04/30 06:34:25;;;;;;;22.00;15.23;;;;;;;11.37;70.03;95791.88;5071189;28;20070;-72
2021/04/30 06:36:53;;;;;;;21.85;15.07;;;;;;;11.39;70.59;95789.63;5070489;28;20059;-71
2021/04/30 06:39:19;;;;;;;24.50;16.30;;;;;;;11.41;71.04;95793.59;5071030;28;20503;-71
2021/04/30 06:41:45;;;;;;;25.52;15.45;;;;;;;11.45;70.99;95789.09;5070437;28;20055;-71
2021/04/30 06:44:11;;;;;;;21.63;15.25;;;;;;;11.45;70.22;95794.53;5070616;28;20451;-71
2021/04/30 06:46:37;;;;;;;26.98;16.20;;;;;;;11.45;69.44;95799.19;5070931;28;20500;-72
2021/04/30 06:49:04;;;;;;;21.75;14.50;;;;;;;11.40;69.46;95797.47;5070236;28;20052;-71
2021/04/30 06:51:31;;;;;;;24.00;15.13;;;;;;;11.32;70.01;95794.81;5080251;28;20044;-71
2021/04/30 06:53:57;;;;;;;21.08;14.73;;;;;;;11.33;69.85;95796.41;5090663;28;20058;-71
2021/04/30 06:56:25;;;;;;;25.75;15.85;;;;;;;11.33;69.75;95788.22;5090880;28;20040;-71
2021/04/30 06:58:50;;;;;;;24.75;15.18;;;;;;;11.34;69.36;95781.66;5076777;28;20049;-71
2021/04/30 07:01:16;;;;;;;21.92;15.32;;;;;;;11.36;69.30;95790.28;5070568;28;20051;-71
2021/04/30 07:03:45;;;;;;;24.92;16.45;;;;;;;11.36;69.80;95773.94;5069984;28;20041;-71
2021/04/30 07:06:12;;;;;;;24.30;16.30;;;;;;;11.32;69.70;95775.75;5070355;28;20118;-71
2021/04/30 07:08:39;;;;;;;21.42;15.93;;;;;;;11.36;69.93;95763.03;5070263;28;20086;-71
2021/04/30 07:11:06;;;;;;;21.27;14.45;;;;;;;11.39;69.10;95767.81;5070157;28;20061;-71
2021/04/30 07:13:34;;;;;;;25.45;15.68;;;;;;;11.44;68.85;95770.34;5070512;28;20407;-71
2021/04/30 07:16:00;;;;;;;22.20;14.80;;;;;;;11.49;69.10;95772.84;5070333;28;20048;-71
2021/04/30 07:18:26;;;;;;;22.20;14.90;;;;;;;11.53;67.72;95768.28;5070517;28;20044;-71
2021/04/30 07:20:52;;;;;;;20.88;14.32;;;;;;;11.56;68.15;95772.28;5073875;28;20044;-71
2021/04/30 07:23:19;;;;;;;20.63;13.50;;;;;;;11.66;67.90;95771.84;5090681;28;20044;-71
2021/04/30 07:25:45;;;;;;;19.60;14.43;;;;;;;11.74;67.10;95757.31;5089981;28;20048;-71
2021/04/30 07:28:11;;;;;;;21.85;13.93;;;;;;;11.81;66.03;95754.03;5082497;28;20392;-71
2021/04/30 07:30:37;;;;;;;19.73;13.10;;;;;;;11.89;66.12;95753.94;5069807;28;20140;-71
2021/04/30 07:33:03;;;;;;;23.90;14.93;;;;;;;12.00;66.48;95752.34;5070066;28;20044;-70
2021/04/30 07:35:29;;;;;;;24.15;14.27;;;;;;;12.17;66.58;95756.78;5070202;28;20510;-73
2021/04/30 07:37:56;;;;;;;19.52;13.73;;;;;;;12.38;65.98;95753.91;5070368;28;20037;-70
2021/04/30 07:40:22;;;;;;;18.05;13.38;;;;;;;12.70;66.20;95749.41;5070035;28;20075;-71
2021/04/30 07:42:49;;;;;;;24.60;14.40;;;;;;;13.04;64.91;95741.75;5069660;28;20044;-72
2021/04/30 07:45:15;;;;;;;16.50;12.68;;;;;;;13.69;63.91;95728.66;5069937;28;20044;-72
2021/04/30 07:47:41;;;;;;;17.65;12.43;;;;;;;14.40;59.62;95728.72;5070292;28;20055;-71
2021/04/30 07:50:08;;;;;;;17.48;12.02;;;;;;;15.28;58.52;95724.31;5070195;28;20048;-72
2021/04/30 07:52:34;;;;;;;16.30;12.23;;;;;;;15.97;59.69;95727.09;5090733;28;20047;-72
2021/04/30 07:55:01;;;;;;;15.05;12.18;;;;;;;16.32;57.76;95726.88;5095111;28;20040;-72
2021/04/30 07:57:28;;;;;;;16.42;11.85;;;;;;;16.60;53.21;95715.50;5110497;28;20050;-72
2021/04/30 07:59:54;;;;;;;19.98;12.65;;;;;;;17.31;53.23;95710.06;5066069;28;20051;-71
2021/04/30 08:02:20;;;;;;;20.20;12.48;;;;;;;18.11;50.91;95704.91;5062579;28;20048;-72
2021/04/30 08:04:47;;;;;;;16.83;11.95;;;;;;;18.58;49.24;95708.78;5062920;28;20463;-72
2021/04/30 08:07:13;;;;;;;16.70;11.05;;;;;;;19.30;48.00;95709.91;5063899;28;20045;-72
2021/04/30 08:09:39;;;;;;;14.23;10.68;;;;;;;19.86;43.87;95718.72;5065202;28;20068;-72
2021/04/30 08:12:05;;;;;;;15.27;11.25;;;;;;;20.17;44.97;95723.47;5065267;28;20523;-72
2021/04/30 08:14:32;;;;;;;17.58;10.93;;;;;;;20.61;43.12;95722.25;5061405;28;20044;-72
2021/04/30 08:16:58;;;;;;;13.93;11.13;;;;;;;20.93;41.31;95719.41;5062817;28;20056;-72
2021/04/30 08:19:25;;;;;;;16.23;10.90;;;;;;;21.15;40.31;95722.13;5064085;28;20076;-72
2021/04/30 08:21:51;;;;;;;20.13;11.55;;;;;;;20.75;40.90;95713.16;5071164;28;20049;-72
2021/04/30 08:24:18;;;;;;;15.93;11.50;;;;;;;20.84;43.63;95700.47;5083378;28;20052;-72
2021/04/30 08:26:44;;;;;;;16.17;11.95;;;;;;;21.23;41.29;95695.97;5094120;28;20047;-72
2021/04/30 08:29:10;;;;;;;13.15;10.70;;;;;;;21.51;41.13;95687.53;5060831;28;20045;-72
2021/04/30 08:31:37;;;;;;;14.18;11.00;;;;;;;21.16;38.73;95682.16;5053547;28;20056;-72
2021/04/30 08:34:04;;;;;;;16.50;11.38;;;;;;;21.33;39.77;95673.00;5053507;28;20048;-72
2021/04/30 08:36:30;;;;;;;17.58;12.50;;;;;;;21.71;40.66;95668.38;5053114;28;20053;-72
2021/04/30 08:38:56;;;;;;;15.25;11.63;;;;;;;21.89;37.83;95668.25;5054135;28;20056;-72
2021/04/30 08:41:25;;;;;;;17.35;11.07;;;;;;;22.14;36.83;95663.34;5052380;28;20057;-72
2021/04/30 08:43:52;;;;;;;13.30;10.88;;;;;;;22.46;38.26;95665.00;5053979;28;20266;-72
2021/04/30 08:46:18;;;;;;;12.98;11.10;;;;;;;22.75;36.15;95656.34;5052501;28;20069;-72
2021/04/30 08:48:45;;;;;;;17.92;11.07;;;;;;;22.98;38.80;95652.97;5053662;28;20060;-72
2021/04/30 08:51:13;;;;;;;15.00;11.30;;;;;;;23.02;39.37;95648.94;5059176;28;20044;-70
2021/04/30 08:53:40;;;;;;;12.43;10.02;;;;;;;22.68;35.85;95662.78;5073183;28;20051;-71
2021/04/30 08:56:06;;;;;;;15.40;10.45;;;;;;;21.71;38.91;95667.59;5072941;28;20492;-71
2021/04/30 08:58:34;;;;;;;16.20;10.18;;;;;;;20.90;39.91;95659.34;5072328;28;20037;-71
2021/04/30 09:01:00;;;;;;;14.27;10.38;;;;;;;20.86;38.90;95655.78;5056184;28;20056;-72
2021/04/30 09:03:27;;;;;;;13.75;10.27;;;;;;;20.17;40.10;95653.59;5051119;28;20041;-71
2021/04/30 09:05:56;;;;;;;14.02;10.85;;;;;;;19.52;43.27;95648.03;5053601;28;20519;-71
2021/04/30 09:08:23;;;;;;;16.65;10.88;;;;;;;19.72;44.73;95636.63;5051832;28;20052;-72
2021/04/30 09:10:50;;;;;;;12.15;10.30;;;;;;;20.43;42.61;95641.28;5053349;28;20094;-71
2021/04/30 09:13:17;;;;;;;12.30;8.50;;;;;;;20.30;40.83;95632.59;5052213;28;20041;-71
2021/04/30 09:15:45;;;;;;;14.48;9.20;;;;;;;20.31;41.18;95645.28;5052841;28;20499;-72
2021/04/30 09:18:17;;;;;;;15.20;10.73;;;;;;;20.14;41.69;95632.25;5052384;28;20044;-72
2021/04/30 09:20:44;;;;;;;14.15;9.80;;;;;;;20.66;42.99;95638.06;5054910;28;20049;-71
2021/04/30 09:23:34;;;;;;;15.88;10.48;;;;;;;20.18;41.30;95633.03;5072796;28;20503;-71
2021/04/30 09:26:00;;;;;;;15.15;11.75;;;;;;;19.78;42.64;95621.22;5072763;28;20044;-71
2021/04/30 09:28:26;;;;;;;13.23;10.98;;;;;;;19.38;43.50;95616.88;5061482;28;20048;-71
2021/04/30 09:30:52;;;;;;;14.65;10.85;;;;;;;19.09;43.65;95622.31;5052014;28;20103;-71
2021/04/30 09:33:19;;;;;;;13.25;10.07;;;;;;;19.36;44.86;95622.75;5052038;28;20118;-71
2021/04/30 09:35:46;;;;;;;13.52;9.68;;;;;;;19.27;43.88;95616.84;5052332;28;20060;-71
2021/04/30 09:38:21;;;;;;;15.00;11.80;;;;;;;18.99;45.41;95612.84;5051954;28;20136;-72
2021/04/30 09:40:50;;;;;;;13.90;11.25;;;;;;;18.84;44.17;95605.69;5052736;28;20044;-71
2021/04/30 09:43:17;;;;;;;12.70;9.55;;;;;;;18.83;45.07;95609.63;5051536;28;20071;-71
2021/04/30 09:45:45;;;;;;;13.65;10.43;;;;;;;19.06;46.60;95605.78;5052706;28;20052;-71
2021/04/30 09:48:12;;;;;;;16.25;10.48;;;;;;;19.12;44.55;95604.22;5051146;28;20507;-71
2021/04/30 09:50:40;;;;;;;12.13;9.93;;;;;;;18.99;47.16;95599.03;5054558;28;20064;-71
2021/04/30 09:53:08;;;;;;;13.77;9.13;;;;;;;19.04;44.36;95598.66;5071260;28;20105;-71
2021/04/30 09:55:39;;;;;;;13.30;9.70;;;;;;;19.03;44.27;95599.06;5072184;28;20037;-71
2021/04/30 09:58:16;;;;;;;12.45;9.48;;;;;;;18.88;43.07;95595.47;5064511;28;20116;-71
2021/04/30 10:00:42;;;;;;;14.60;10.85;;;;;;;18.68;45.48;95596.97;5066462;28;20048;-71
2021/04/30 10:03:15;;;;;;;13.68;10.20;;;;;;;18.65;46.40;95589.47;5070523;28;20040;-71
2021/04/30 10:06:04;;;;;;;12.20;9.82;;;;;;;18.67;45.19;95589.84;5071242;28;20041;-71
2021/04/30 10:08:31;;;;;;;11.52;8.85;;;;;;;18.49;45.03;95590.59;5075590;28;20056;-71
2021/04/30 10:10:57;;;;;;;16.17;10.55;;;;;;;18.57;49.38;95585.09;5091319;28;20564;-71
2021/04/30 10:13:24;;;;;;;13.35;10.55;;;;;;;18.75;47.01;95594.25;5091427;28;20035;-71
2021/04/30 10:15:50;;;;;;;11.73;8.95;;;;;;;18.74;46.26;95592.66;5091531;28;20044;-71
2021/04/30 10:18:17;;;;;;;12.82;9.73;;;;;;;18.82;45.82;95583.25;5091060;28;20093;-71
2021/04/30 10:20:44;;;;;;;11.43;9.70;;;;;;;18.84;47.41;95571.81;5091628;28;20059;-71
2021/04/30 10:23:14;;;;;;;14.35;10.18;;;;;;;18.82;46.12;95574.19;5082295;28;20487;-71
2021/04/30 10:25:41;;;;;;;12.00;10.07;;;;;;;18.94;45.43;95571.84;5092060;28;20072;-71
2021/04/30 10:28:10;;;;;;;14.70;10.07;;;;;;;18.96;46.68;95575.00;5082085;28;20044;-71
2021/04/30 10:30:41;;;;;;;12.15;9.85;;;;;;;18.88;45.45;95570.63;5057796;28;20057;-71
2021/04/30 10:33:13;;;;;;;12.25;9.45;;;;;;;18.81;46.70;95562.34;5050542;28;20041;-71
2021/04/30 10:35:45;;;;;;;14.45;10.98;;;;;;;19.18;49.15;95566.75;5051641;28;20055;-71
2021/04/30 10:38:15;;;;;;;13.20;10.38;;;;;;;19.43;45.73;95562.03;5050741;28;20118;-71
2021/04/30 10:40:51;;;;;;;12.15;10.20;;;;;;;19.26;45.18;95560.88;5051023;28;20048;-71
2021/04/30 10:43:18;;;;;;;12.45;10.15;;;;;;;19.21;46.19;95552.16;5051140;28;20045;-71
2021/04/30 10:45:57;;;;;;;11.65;9.73;;;;;;;19.27;46.52;95547.84;5050351;28;20045;-71
2021/04/30 10:48:23;;;;;;;10.43;8.95;;;;;;;19.33;47.07;95557.31;5051243;28;20041;-71
2021/04/30 10:50:50;;;;;;;12.45;9.27;;;;;;;19.64;43.48;95552.22;5054213;28;20049;-71
2021/04/30 10:53:26;;;;;;;12.35;10.90;;;;;;;19.49;43.41;95545.88;5070630;28;20052;-71
2021/04/30 10:55:53;;;;;;;12.07;10.75;;;;;;;19.42;48.21;95535.63;5070670;28;20048;-72
2021/04/30 10:58:36;;;;;;;13.52;9.95;;;;;;;19.56;44.16;95545.84;5061569;28;20045;-72
2021/04/30 11:01:22;;;;;;;13.82;10.57;;;;;;;19.50;45.79;95537.19;5050973;28;20124;-70
2021/04/30 11:04:14;;;;;;;13.45;10.23;;;;;;;19.33;44.67;95542.72;5050212;28;20514;-70
2021/04/30 11:06:43;;;;;;;12.90;10.30;;;;;;;19.40;47.10;95537.97;5051003;28;20055;-70
2021/04/30 11:09:15;;;;;;;14.30;11.07;;;;;;;19.71;46.03;95524.56;5050035;28;20515;-69
2021/04/30 11:11:42;;;;;;;14.55;11.13;;;;;;;19.70;44.04;95523.00;5050622;28;20052;-70
2021/04/30 11:14:26;;;;;;;13.18;9.90;;;;;;;19.77;46.38;95520.22;5050291;28;20514;-70
2021/04/30 11:16:55;;;;;;;10.57;9.35;;;;;;;19.97;43.67;95521.34;5050144;28;20053;-71
2021/04/30 11:19:22;;;;;;;13.40;9.13;;;;;;;20.14;44.62;95524.47;5050712;28;20094;-69